Time;durP1;ratioP1;P1;durP2;ratioP2;P2;SDS_P1;SDS_P2;PMS_P1;PMS_P2;Temp;Humidity;BMP_temperature;BMP_pressure;BME280_temperature;BME280_humidity;BME280_pressure;Samples;Min_cycle;Max_cycle;Signal;HPM_P1;HPM_P2
2022/11/21 00:00:52;;;;;;;1.13;0.80;;;;;;;4.64;90.57;99434.41;5005684;28;20555;-65
2022/11/21 00:03:18;;;;;;;2.60;1.20;;;;;;;4.69;90.47;99438.91;5009776;28;20660;-67
2022/11/21 00:05:47;;;;;;;1.97;0.80;;;;;;;4.64;90.28;99430.06;5009927;28;20204;-67
2022/11/21 00:08:17;;;;;;;1.57;1.00;;;;;;;4.65;90.13;99430.94;5006628;28;20226;-65
2022/11/21 00:10:44;;;;;;;1.30;0.90;;;;;;;4.59;89.84;99428.19;4985354;28;20303;-66
2022/11/21 00:13:13;;;;;;;1.93;0.90;;;;;;;4.72;89.86;99430.22;4981076;28;20255;-64
2022/11/21 00:15:39;;;;;;;0.80;0.80;;;;;;;4.66;89.73;99423.09;4995171;28;20224;-69
2022/11/21 00:18:05;;;;;;;1.07;0.80;;;;;;;4.70;89.56;99421.41;4999838;28;20345;-68
2022/11/21 00:20:36;;;;;;;1.57;1.00;;;;;;;4.64;89.65;99426.53;5000452;28;20220;-66
2022/11/21 00:23:02;;;;;;;0.70;0.63;;;;;;;4.59;89.80;99423.81;5000194;28;20232;-65
2022/11/21 00:25:29;;;;;;;1.63;0.70;;;;;;;4.66;89.81;99432.69;5008674;28;20262;-65
2022/11/21 00:27:55;;;;;;;1.83;0.90;;;;;;;4.54;89.91;99420.22;5006586;28;20307;-68
2022/11/21 00:30:22;;;;;;;1.77;0.87;;;;;;;4.50;89.96;99410.53;5004459;28;20216;-68
2022/11/21 00:32:48;;;;;;;1.77;0.80;;;;;;;4.49;90.24;99421.88;5002309;28;20531;-66
2022/11/21 00:35:14;;;;;;;1.83;0.70;;;;;;;4.65;89.68;99425.69;5004341;28;20288;-68
2022/11/21 00:37:40;;;;;;;2.50;0.80;;;;;;;4.63;89.69;99432.63;5003843;28;20291;-67
2022/11/21 00:40:07;;;;;;;2.07;0.90;;;;;;;4.64;89.99;99429.16;5006563;28;20224;-65
2022/11/21 00:42:34;;;;;;;1.07;0.70;;;;;;;4.65;89.88;99423.06;5009013;28;20220;-68
2022/11/21 00:45:00;;;;;;;1.53;0.97;;;;;;;4.71;89.35;99410.06;5003261;28;20288;-66
2022/11/21 00:47:26;;;;;;;1.57;0.80;;;;;;;4.85;88.56;99416.50;5008158;28;20284;-66
2022/11/21 00:49:53;;;;;;;2.83;1.40;;;;;;;4.76;88.54;99407.53;5001898;28;20242;-66
2022/11/21 00:52:19;;;;;;;3.97;1.40;;;;;;;4.82;88.67;99412.94;5008433;28;20234;-65
2022/11/21 00:54:46;;;;;;;3.83;1.23;;;;;;;4.88;88.23;99429.69;4996668;28;20220;-68
2022/11/21 00:57:12;;;;;;;1.57;1.23;;;;;;;4.83;88.73;99419.97;5007695;28;20303;-68
2022/11/21 00:59:39;;;;;;;5.67;1.17;;;;;;;4.92;88.08;99426.28;5005783;28;20251;-66
2022/11/21 01:02:05;;;;;;;1.70;1.10;;;;;;;4.91;88.38;99414.00;5006632;28;20200;-65
2022/11/21 01:04:33;;;;;;;3.27;1.67;;;;;;;5.00;88.21;99422.06;5004314;28;20201;-66
2022/11/21 01:07:00;;;;;;;4.33;1.20;;;;;;;5.09;87.74;99423.09;5006352;28;20339;-66
2022/11/21 01:09:27;;;;;;;4.27;1.57;;;;;;;5.04;87.87;99404.63;5006121;28;20232;-65
2022/11/21 01:11:54;;;;;;;5.47;1.37;;;;;;;5.02;88.23;99401.09;5004642;28;22604;-65
2022/11/21 01:14:21;;;;;;;2.87;1.30;;;;;;;4.99;88.34;99401.03;4998848;28;20232;-68
2022/11/21 01:16:48;;;;;;;3.20;1.20;;;;;;;5.02;88.20;99398.47;5003664;28;20196;-66
2022/11/21 01:19:14;;;;;;;4.60;1.40;;;;;;;4.98;88.48;99397.53;5003530;28;20254;-65
2022/11/21 01:21:40;;;;;;;5.13;1.60;;;;;;;4.98;88.82;99397.53;5004959;28;20275;-67
2022/11/21 01:24:10;;;;;;;4.13;1.50;;;;;;;4.96;89.23;99382.63;5001547;28;20223;-65
2022/11/21 01:26:37;;;;;;;7.13;1.43;;;;;;;4.93;89.12;99383.44;5006916;28;20228;-65
2022/11/21 01:29:04;;;;;;;8.43;1.67;;;;;;;4.95;88.73;99392.22;5001204;28;20255;-69
2022/11/21 01:31:30;;;;;;;6.07;1.60;;;;;;;4.84;89.23;99383.28;5008021;28;20747;-65
2022/11/21 01:33:58;;;;;;;7.30;1.70;;;;;;;4.82;89.44;99387.59;5004270;28;20211;-65
2022/11/21 01:36:27;;;;;;;10.83;2.40;;;;;;;4.79;89.61;99386.63;5003159;28;20258;-65
2022/11/21 01:38:56;;;;;;;11.70;2.70;;;;;;;4.65;89.82;99384.63;5004542;28;20760;-67
2022/11/21 01:41:32;;;;;;;3.63;2.13;;;;;;;4.55;90.41;99387.91;5003925;28;20237;-65
2022/11/21 01:43:59;;;;;;;7.73;2.00;;;;;;;4.50;90.40;99393.91;5003114;28;20311;-69
2022/11/21 01:46:26;;;;;;;9.30;1.90;;;;;;;4.55;90.76;99393.16;5004788;28;20254;-65
2022/11/21 01:48:58;;;;;;;5.90;1.60;;;;;;;4.47;90.58;99384.25;4994720;28;20292;-65
2022/11/21 01:51:54;;;;;;;7.67;1.70;;;;;;;4.45;90.63;99391.19;5006721;28;20732;-69
2022/11/21 01:54:45;;;;;;;6.07;1.43;;;;;;;4.15;90.99;99385.25;5005586;28;20480;-65
2022/11/21 01:57:16;;;;;;;7.20;1.60;;;;;;;4.04;91.66;99391.16;4999249;28;20287;-65
2022/11/21 01:59:51;;;;;;;6.47;1.90;;;;;;;3.88;91.85;99393.34;4998023;28;20311;-66
2022/11/21 02:02:22;;;;;;;7.13;1.60;;;;;;;3.94;91.97;99403.97;5004709;28;20218;-68
2022/11/21 02:04:50;;;;;;;5.93;1.73;;;;;;;4.08;92.21;99398.22;5004558;28;20620;-69
2022/11/21 02:07:20;;;;;;;6.93;2.20;;;;;;;3.89;92.42;99410.84;4986786;28;20204;-68
2022/11/21 02:09:51;;;;;;;4.93;1.60;;;;;;;4.09;92.38;99400.00;5005484;28;20216;-65
2022/11/21 02:12:25;;;;;;;3.13;1.20;;;;;;;3.98;92.40;99403.19;5006985;28;20630;-65
2022/11/21 02:14:53;;;;;;;7.77;2.00;;;;;;;3.91;92.74;99407.41;4996048;28;20207;-65
2022/11/21 02:17:19;;;;;;;5.77;2.10;;;;;;;3.89;92.39;99410.84;5004238;28;20196;-66
2022/11/21 02:19:58;;;;;;;4.57;1.73;;;;;;;3.88;92.69;99411.69;5005204;28;20307;-64
2022/11/21 02:22:49;;;;;;;9.47;2.23;;;;;;;4.01;92.85;99405.91;5007569;28;20192;-66
2022/11/21 02:25:22;;;;;;;4.83;1.80;;;;;;;3.84;92.98;99408.13;5007451;28;20279;-66
2022/11/21 02:28:00;;;;;;;5.60;1.63;;;;;;;3.73;92.66;99409.59;5003769;28;20231;-69
2022/11/21 02:30:32;;;;;;;2.97;1.43;;;;;;;3.62;93.08;99411.06;5002947;28;20624;-69
2022/11/21 02:32:59;;;;;;;7.47;1.93;;;;;;;3.91;93.10;99401.28;5000787;28;20710;-68
2022/11/21 02:35:25;;;;;;;5.70;2.00;;;;;;;3.68;93.35;99404.25;4995341;28;20673;-68
2022/11/21 02:38:01;;;;;;;8.53;2.20;;;;;;;3.65;93.35;99404.19;5002467;28;20200;-66
2022/11/21 02:40:32;;;;;;;7.83;2.60;;;;;;;3.60;93.29;99397.03;5002962;28;20302;-67
2022/11/21 02:43:23;;;;;;;6.47;2.20;;;;;;;3.58;93.25;99404.84;4990339;28;20231;-66
2022/11/21 02:45:49;;;;;;;6.43;1.93;;;;;;;3.52;93.49;99402.06;5010509;28;20281;-67
2022/11/21 02:48:16;;;;;;;2.87;1.80;;;;;;;3.43;93.71;99407.09;5005580;28;20239;-66
2022/11/21 02:50:44;;;;;;;7.43;2.97;;;;;;;3.38;93.83;99406.09;5011301;28;20309;-69
2022/11/21 02:53:16;;;;;;;7.57;2.07;;;;;;;3.35;94.10;99412.13;5009130;28;20251;-68
2022/11/21 02:55:43;;;;;;;11.13;2.20;;;;;;;3.31;94.20;99412.88;5009000;28;20295;-68
2022/11/21 02:58:11;;;;;;;8.10;2.60;;;;;;;3.25;94.15;99419.69;5006418;28;20654;-68
2022/11/21 03:00:39;;;;;;;7.33;2.00;;;;;;;3.20;94.29;99416.03;5007339;28;20232;-65
2022/11/21 03:03:06;;;;;;;12.57;2.50;;;;;;;3.22;94.33;99415.28;5007904;28;20262;-65
2022/11/21 03:05:32;;;;;;;9.23;2.77;;;;;;;3.38;94.64;99425.28;5004240;28;20232;-67
2022/11/21 03:08:01;;;;;;;8.37;2.47;;;;;;;3.51;94.77;99420.34;5001115;28;20251;-66
2022/11/21 03:10:27;;;;;;;10.97;2.50;;;;;;;3.50;94.43;99418.59;5010570;28;20295;-66
2022/11/21 03:12:59;;;;;;;8.90;2.73;;;;;;;3.37;94.24;99406.94;5006639;28;20315;-66
2022/11/21 03:15:30;;;;;;;8.97;2.70;;;;;;;3.33;94.05;99418.16;5005429;28;20199;-65
2022/11/21 03:17:57;;;;;;;9.63;2.33;;;;;;;3.38;94.06;99421.78;5007362;28;20254;-68
2022/11/21 03:20:23;;;;;;;9.60;2.43;;;;;;;3.21;93.96;99415.22;4998788;28;20315;-65
2022/11/21 03:22:52;;;;;;;7.07;2.47;;;;;;;3.00;94.15;99412.91;5003808;28;20229;-68
2022/11/21 03:25:19;;;;;;;6.17;2.40;;;;;;;3.07;93.93;99420.94;5005299;28;20246;-67
2022/11/21 03:27:45;;;;;;;8.80;2.43;;;;;;;2.98;94.29;99427.66;5002023;28;20285;-65
2022/11/21 03:30:12;;;;;;;11.10;2.43;;;;;;;2.94;94.45;99423.19;5005016;28;20294;-65
2022/11/21 03:32:39;;;;;;;11.60;2.60;;;;;;;2.84;94.14;99427.28;5007956;28;20246;-69
2022/11/21 03:35:05;;;;;;;8.90;2.63;;;;;;;2.77;94.69;99434.03;5007957;28;20205;-67
2022/11/21 03:37:32;;;;;;;7.70;3.10;;;;;;;2.73;94.60;99433.91;5005426;28;20235;-65
2022/11/21 03:39:58;;;;;;;8.70;2.83;;;;;;;2.65;94.67;99436.31;5003679;28;20216;-66
2022/11/21 03:42:24;;;;;;;7.83;2.60;;;;;;;2.59;94.79;99427.41;5004101;28;20301;-65
2022/11/21 03:44:51;;;;;;;10.77;2.60;;;;;;;2.54;95.08;99431.63;5003792;28;20232;-65
2022/11/21 03:47:17;;;;;;;9.13;2.90;;;;;;;2.57;95.20;99429.97;5001195;28;20234;-70
2022/11/21 03:49:44;;;;;;;8.33;2.83;;;;;;;2.55;95.08;99431.66;5001605;28;20228;-67
2022/11/21 03:52:10;;;;;;;9.00;2.53;;;;;;;2.51;95.05;99441.13;4999224;28;20201;-66
2022/11/21 03:54:36;;;;;;;8.13;2.40;;;;;;;2.47;95.12;99434.06;5007111;28;20231;-66
2022/11/21 03:57:02;;;;;;;10.73;3.10;;;;;;;2.45;95.46;99421.78;5010312;28;20660;-66
2022/11/21 03:59:29;;;;;;;7.63;2.37;;;;;;;2.45;95.48;99424.41;5003807;28;20307;-66
2022/11/21 04:01:55;;;;;;;9.00;2.93;;;;;;;2.47;95.17;99434.06;4999221;28;20236;-65
2022/11/21 04:04:22;;;;;;;7.13;2.60;;;;;;;2.41;95.06;99433.88;5005777;28;20200;-67
2022/11/21 04:06:48;;;;;;;9.97;2.67;;;;;;;2.46;95.44;99441.84;5005050;28;20304;-66
2022/11/21 04:09:14;;;;;;;7.30;2.53;;;;;;;2.34;95.22;99424.03;5003891;28;20703;-65
2022/11/21 04:11:41;;;;;;;7.33;2.60;;;;;;;2.49;95.35;99447.16;5004529;28;20617;-68
2022/11/21 04:14:07;;;;;;;11.20;2.90;;;;;;;2.64;95.90;99441.50;5004252;28;20303;-68
2022/11/21 04:16:33;;;;;;;6.13;2.73;;;;;;;2.60;95.50;99437.91;5005765;28;20287;-66
2022/11/21 04:18:59;;;;;;;7.03;2.30;;;;;;;2.58;95.58;99433.47;5002513;28;20216;-66
2022/11/21 04:21:27;;;;;;;5.60;2.60;;;;;;;2.55;95.45;99441.22;5002956;28;20310;-66
2022/11/21 04:23:53;;;;;;;6.77;2.63;;;;;;;2.57;95.55;99445.66;5004086;28;20208;-65
2022/11/21 04:26:19;;;;;;;4.67;2.67;;;;;;;2.65;95.89;99438.03;5002434;28;20284;-68
2022/11/21 04:28:46;;;;;;;8.47;3.00;;;;;;;2.78;96.43;99435.81;5003737;28;20223;-67
2022/11/21 04:31:12;;;;;;;8.90;2.60;;;;;;;2.78;96.26;99445.38;4998146;28;20417;-66
2022/11/21 04:33:39;;;;;;;9.53;3.13;;;;;;;2.87;95.90;99444.78;5000639;28;20262;-67
2022/11/21 04:36:07;;;;;;;9.07;2.87;;;;;;;2.70;95.52;99439.06;5004895;28;20677;-66
2022/11/21 04:38:33;;;;;;;10.30;3.00;;;;;;;2.57;95.31;99436.94;5004213;28;20291;-67
2022/11/21 04:40:59;;;;;;;7.90;2.80;;;;;;;2.49;95.15;99452.38;4998048;28;20286;-65
2022/11/21 04:43:26;;;;;;;7.80;2.77;;;;;;;2.41;95.66;99452.16;5005192;28;20731;-66
2022/11/21 04:45:52;;;;;;;10.80;2.60;;;;;;;2.38;95.73;99459.00;4988700;28;20270;-65
2022/11/21 04:48:19;;;;;;;8.20;2.80;;;;;;;2.35;96.12;99448.44;5005731;28;20628;-66
2022/11/21 04:50:45;;;;;;;10.37;3.10;;;;;;;2.31;96.04;99439.63;4989164;28;20748;-69
2022/11/21 04:53:12;;;;;;;9.47;2.83;;;;;;;2.33;96.11;99443.19;5000637;28;20193;-66
2022/11/21 04:55:38;;;;;;;10.67;3.27;;;;;;;2.30;96.04;99440.47;4998435;28;20295;-65
2022/11/21 04:58:05;;;;;;;9.43;2.77;;;;;;;2.34;96.30;99455.41;5002675;28;20220;-65
2022/11/21 05:00:31;;;;;;;8.97;2.77;;;;;;;2.31;95.98;99455.31;5007325;28;20255;-65
2022/11/21 05:03:02;;;;;;;5.00;2.80;;;;;;;2.30;96.22;99453.53;5004009;28;20428;-68
2022/11/21 05:05:29;;;;;;;6.60;2.57;;;;;;;2.27;95.71;99450.81;5004910;28;20672;-65
2022/11/21 05:07:55;;;;;;;7.13;2.80;;;;;;;2.21;95.89;99455.88;4995460;28;20338;-65
2022/11/21 05:10:22;;;;;;;6.07;2.47;;;;;;;2.26;96.03;99456.88;5004357;28;20223;-66
2022/11/21 05:15:44;;;;;;;6.93;2.50;;;;;;;2.31;96.32;99457.03;5005086;28;20291;-66
2022/11/21 05:18:10;;;;;;;5.73;2.10;;;;;;;2.33;96.40;99463.19;5003204;28;20196;-65
2022/11/21 05:20:37;;;;;;;8.33;2.23;;;;;;;2.44;96.78;99464.44;4999564;28;20227;-67
2022/11/21 05:23:03;;;;;;;4.60;1.93;;;;;;;2.55;96.80;99464.75;5003422;28;20202;-66
2022/11/21 05:25:29;;;;;;;6.93;2.40;;;;;;;2.73;97.23;99454.81;5004687;28;20243;-70
2022/11/21 05:27:56;;;;;;;7.40;2.53;;;;;;;2.91;97.15;99459.72;5001942;28;20240;-64
2022/11/21 05:30:22;;;;;;;6.50;2.40;;;;;;;3.04;97.50;99451.38;5002655;28;20216;-67
2022/11/21 05:32:49;;;;;;;5.50;2.30;;;;;;;3.14;97.16;99442.94;5002045;28;20274;-66
2022/11/21 05:35:15;;;;;;;4.90;2.30;;;;;;;3.27;97.47;99444.16;4993714;28;20259;-65
2022/11/21 05:37:42;;;;;;;5.20;2.20;;;;;;;3.36;97.19;99433.94;5006912;28;20208;-68
2022/11/21 05:40:08;;;;;;;8.23;2.40;;;;;;;3.45;97.26;99440.28;5006516;28;20315;-66
2022/11/21 05:45:23;;;;;;;5.03;1.93;;;;;;;3.52;97.01;99425.63;5003986;28;20200;-66
2022/11/21 05:47:50;;;;;;;10.03;2.37;;;;;;;3.58;96.74;99435.38;5007086;28;20208;-66
2022/11/21 05:50:16;;;;;;;8.33;2.70;;;;;;;3.71;96.82;99440.97;5000795;28;20311;-65
2022/11/21 05:52:42;;;;;;;9.50;2.90;;;;;;;3.77;96.19;99433.28;5006264;28;20196;-68
2022/11/21 05:55:09;;;;;;;6.20;2.77;;;;;;;3.69;96.20;99431.31;4999307;28;20728;-66
2022/11/21 05:57:35;;;;;;;7.70;3.37;;;;;;;3.67;96.42;99433.00;4995166;28;20657;-67
2022/11/21 06:00:02;;;;;;;6.53;2.90;;;;;;;3.57;96.32;99429.25;5019299;23;20220;-66
2022/11/21 06:05:14;;;;;;;6.63;2.67;;;;;;;3.39;96.17;99434.03;4997634;28;20196;-64
2022/11/21 06:07:40;;;;;;;5.53;2.30;;;;;;;3.36;96.06;99440.06;5004271;28;20200;-63
2022/11/21 06:10:07;;;;;;;8.47;2.77;;;;;;;3.30;96.07;99444.25;4992562;28;20225;-62
2022/11/21 06:12:33;;;;;;;5.40;2.70;;;;;;;3.38;96.43;99454.06;4985841;28;20288;-63
2022/11/21 06:15:00;;;;;;;6.17;2.40;;;;;;;3.50;96.37;99450.88;4983343;28;20224;-65
2022/11/21 06:17:26;;;;;;;10.00;2.77;;;;;;;3.46;96.33;99438.56;4985542;28;20283;-65
2022/11/21 06:19:52;;;;;;;8.47;2.93;;;;;;;3.43;96.24;99452.47;4986957;28;20312;-63
2022/11/21 06:22:18;;;;;;;6.57;3.10;;;;;;;3.49;96.16;99450.84;4985522;28;20800;-63
2022/11/21 06:24:45;;;;;;;11.17;3.37;;;;;;;3.43;96.04;99442.00;4973900;28;20323;-63
2022/11/21 06:27:11;;;;;;;8.70;2.97;;;;;;;3.34;95.72;99451.34;4982425;28;20284;-63
2022/11/21 06:29:37;;;;;;;6.10;2.87;;;;;;;3.26;95.29;99445.00;4984945;28;20635;-63
2022/11/21 06:32:04;;;;;;;5.20;3.17;;;;;;;3.13;95.35;99430.69;4983401;28;20232;-63
2022/11/21 06:34:30;;;;;;;5.00;2.50;;;;;;;3.34;96.22;99439.13;4983521;28;20300;-63
2022/11/21 06:36:56;;;;;;;7.43;3.00;;;;;;;3.41;96.09;99448.91;4986106;28;20260;-64
2022/11/21 06:39:23;;;;;;;11.30;2.63;;;;;;;3.53;96.45;99447.44;4984449;28;20224;-66
2022/11/21 06:41:49;;;;;;;7.93;2.90;;;;;;;3.58;96.82;99451.97;4982997;28;20217;-63
2022/11/21 06:44:17;;;;;;;3.37;2.30;;;;;;;3.68;96.61;99448.75;4976183;28;20288;-62
2022/11/21 06:46:43;;;;;;;6.97;2.77;;;;;;;3.78;97.22;99457.72;4979388;28;20637;-64
2022/11/21 06:49:16;;;;;;;7.17;2.47;;;;;;;3.93;97.31;99454.59;4983739;28;20227;-62
2022/11/21 06:51:43;;;;;;;4.97;2.73;;;;;;;4.00;96.99;99453.88;4981125;28;20225;-63
2022/11/21 06:54:09;;;;;;;4.20;2.30;;;;;;;4.11;96.41;99446.31;4984249;28;20458;-63
2022/11/21 06:56:42;;;;;;;9.23;2.40;;;;;;;4.10;95.87;99442.81;4983864;28;20585;-64
2022/11/21 06:59:08;;;;;;;4.83;2.27;;;;;;;4.20;95.64;99449.13;4985841;28;20198;-64
2022/11/21 07:01:34;;;;;;;5.07;2.27;;;;;;;4.11;95.67;99452.44;4983473;28;20217;-66
2022/11/21 07:04:01;;;;;;;5.23;2.33;;;;;;;4.15;96.01;99453.38;4983850;28;20256;-63
2022/11/21 07:06:29;;;;;;;3.17;2.07;;;;;;;4.15;96.19;99448.16;4989673;28;20613;-64
2022/11/21 07:08:56;;;;;;;4.07;2.03;;;;;;;4.20;96.45;99444.78;4988553;28;20293;-63
2022/11/21 07:11:42;;;;;;;7.30;2.10;;;;;;;4.27;95.47;99440.56;4987572;28;20284;-63
2022/11/21 07:14:09;;;;;;;3.63;1.77;;;;;;;4.30;95.76;99448.50;4986230;28;20260;-63
2022/11/21 07:16:36;;;;;;;5.03;2.00;;;;;;;4.28;95.62;99448.47;4989569;28;20256;-66
2022/11/21 07:19:02;;;;;;;3.70;1.90;;;;;;;4.24;95.86;99454.47;4986926;28;20201;-63
2022/11/21 07:21:28;;;;;;;3.10;1.67;;;;;;;4.25;95.67;99465.84;4985206;28;20304;-63
2022/11/21 07:23:55;;;;;;;3.87;1.90;;;;;;;4.18;95.70;99464.81;4970484;28;20305;-63
2022/11/21 07:26:21;;;;;;;4.80;2.00;;;;;;;4.20;95.71;99465.75;4987167;28;20203;-63
2022/11/21 07:28:47;;;;;;;6.20;2.20;;;;;;;4.18;95.49;99462.22;4981241;28;20206;-63
2022/11/21 07:31:14;;;;;;;7.70;2.00;;;;;;;4.18;95.28;99475.31;4986743;28;20221;-65
2022/11/21 07:33:42;;;;;;;7.10;2.10;;;;;;;4.36;94.50;99470.47;4989723;28;20264;-64
2022/11/21 07:36:09;;;;;;;4.07;2.03;;;;;;;4.28;94.85;99466.81;4990320;28;20225;-63
2022/11/21 07:38:36;;;;;;;3.10;1.87;;;;;;;4.19;94.92;99476.19;4971143;28;20730;-63
2022/11/21 07:41:02;;;;;;;4.03;1.80;;;;;;;4.17;94.51;99470.03;4985002;28;20222;-63
2022/11/21 07:43:28;;;;;;;4.03;2.33;;;;;;;4.25;95.12;99481.56;4989165;28;20205;-66
2022/11/21 07:45:55;;;;;;;4.03;2.07;;;;;;;4.33;95.29;99475.66;4987471;28;20633;-64
2022/11/21 07:48:21;;;;;;;4.47;2.87;;;;;;;4.48;95.21;99479.50;4986789;28;20257;-63
2022/11/21 07:50:48;;;;;;;4.23;2.50;;;;;;;4.63;95.72;99477.22;4987514;28;20304;-63
2022/11/21 07:53:14;;;;;;;4.10;2.70;;;;;;;4.86;96.11;99476.00;4987647;28;20195;-62
2022/11/21 07:55:41;;;;;;;4.10;2.73;;;;;;;5.06;96.29;99479.00;4985611;28;20844;-63
2022/11/21 07:58:10;;;;;;;4.47;2.13;;;;;;;5.22;96.42;99483.75;4988644;28;20197;-64
2022/11/21 08:00:41;;;;;;;4.27;1.90;;;;;;;5.34;96.54;99485.72;4986675;28;20261;-62
2022/11/21 08:03:07;;;;;;;5.25;2.40;;;;;;;5.53;96.23;99490.44;4978654;28;20498;-63
2022/11/21 08:05:38;;;;;;;4.67;2.20;;;;;;;5.72;95.49;99483.81;4988490;28;20233;-66
2022/11/21 08:08:05;;;;;;;3.17;1.60;;;;;;;5.85;95.62;99482.28;4988382;28;20283;-63
2022/11/21 08:10:32;;;;;;;3.90;1.80;;;;;;;6.08;92.43;99472.22;4987115;28;20225;-63
2022/11/21 08:12:58;;;;;;;4.20;1.40;;;;;;;6.27;90.47;99471.63;4987097;28;20655;-65
2022/11/21 08:15:25;;;;;;;3.73;1.70;;;;;;;6.41;87.25;99471.88;4985949;28;20244;-61
2022/11/21 08:17:51;;;;;;;2.37;1.47;;;;;;;6.44;89.14;99466.66;4988951;28;20243;-62
2022/11/21 08:20:18;;;;;;;8.97;1.97;;;;;;;6.50;89.79;99470.25;4990921;28;20668;-64
2022/11/21 08:22:44;;;;;;;5.73;1.50;;;;;;;6.59;85.55;99464.22;4983901;28;20314;-62
2022/11/21 08:25:10;;;;;;;3.43;1.50;;;;;;;6.70;83.64;99465.25;4988279;28;20233;-62
2022/11/21 08:27:37;;;;;;;3.63;1.33;;;;;;;6.69;84.75;99465.22;4986513;28;20309;-64
2022/11/21 08:30:06;;;;;;;4.30;1.40;;;;;;;6.73;84.48;99460.03;4988218;28;20231;-62
2022/11/21 08:32:33;;;;;;;3.57;1.50;;;;;;;6.90;82.81;99455.91;4984682;28;20224;-62
2022/11/21 08:34:59;;;;;;;4.17;1.70;;;;;;;6.83;82.50;99448.78;4990248;28;20530;-62
2022/11/21 08:37:28;;;;;;;3.97;1.50;;;;;;;6.87;82.99;99453.22;4971117;28;20258;-62
2022/11/21 08:39:55;;;;;;;4.57;1.63;;;;;;;6.94;81.31;99461.19;4987486;28;20292;-62
2022/11/21 08:42:21;;;;;;;4.17;1.30;;;;;;;6.96;81.83;99455.09;4981932;28;20220;-62
2022/11/21 08:44:47;;;;;;;4.33;1.57;;;;;;;7.00;82.10;99459.53;4985345;28;20312;-62
2022/11/21 08:47:14;;;;;;;4.27;1.50;;;;;;;7.07;80.45;99460.47;4986333;28;20207;-63
2022/11/21 08:49:40;;;;;;;3.50;1.40;;;;;;;7.00;80.57;99461.28;4987392;28;20247;-63
2022/11/21 08:52:06;;;;;;;3.67;1.60;;;;;;;7.02;81.13;99477.97;4988278;28;20727;-63
2022/11/21 08:54:33;;;;;;;4.40;1.73;;;;;;;6.97;80.90;99463.88;4982332;28;20255;-66
2022/11/21 08:56:59;;;;;;;3.50;1.60;;;;;;;6.91;81.21;99467.31;4987878;28;20202;-62
2022/11/21 08:59:25;;;;;;;4.30;1.73;;;;;;;6.91;81.46;99462.03;4988558;28;20240;-62
2022/11/21 09:01:52;;;;;;;5.57;1.50;;;;;;;6.96;80.93;99455.09;4986809;28;20656;-64
2022/11/21 09:04:18;;;;;;;5.97;1.70;;;;;;;7.01;81.73;99455.13;4985966;28;20244;-63
2022/11/21 09:06:45;;;;;;;3.07;1.60;;;;;;;7.14;81.46;99441.25;4980295;28;20635;-63
2022/11/21 09:09:11;;;;;;;2.97;1.70;;;;;;;7.29;81.29;99440.56;4986375;28;20198;-65
2022/11/21 09:11:37;;;;;;;3.77;1.87;;;;;;;7.36;79.89;99437.13;4986978;28;20196;-63
2022/11/21 09:19:34;;;;;;;5.40;1.53;;;;;;;7.08;80.85;99446.44;4984735;28;20291;-64
2022/11/21 09:22:00;;;;;;;3.63;1.50;;;;;;;7.04;79.79;99442.00;4984318;28;20221;-64
2022/11/21 09:24:26;;;;;;;2.17;1.43;;;;;;;7.02;78.57;99438.47;4987022;28;20227;-62
2022/11/21 09:26:53;;;;;;;2.80;1.50;;;;;;;7.04;78.95;99428.84;4982441;28;20612;-62
2022/11/21 09:29:19;;;;;;;3.90;1.80;;;;;;;7.06;78.75;99432.38;4982737;28;20238;-62
2022/11/21 09:31:45;;;;;;;5.67;1.63;;;;;;;7.11;78.06;99431.56;4983976;28;20235;-61
2022/11/21 09:34:12;;;;;;;2.23;1.50;;;;;;;7.13;78.61;99428.94;4985835;28;20822;-62
2022/11/21 09:36:38;;;;;;;5.13;1.80;;;;;;;7.19;77.84;99427.28;4981380;28;20225;-64
2022/11/21 09:39:04;;;;;;;2.30;1.37;;;;;;;7.22;76.26;99436.97;4983100;28;20473;-64
2022/11/21 09:41:55;;;;;;;6.07;1.40;;;;;;;7.31;75.04;99428.28;4979807;28;20318;-64
2022/11/21 09:44:51;;;;;;;3.00;1.27;;;;;;;7.29;75.25;99430.03;4984063;28;20207;-62
2022/11/21 09:47:33;;;;;;;3.70;1.33;;;;;;;7.39;75.17;99431.88;4960599;28;20293;-62
2022/11/21 09:50:23;;;;;;;4.37;1.40;;;;;;;7.56;74.40;99422.41;4980744;28;20256;-61
2022/11/21 09:53:04;;;;;;;3.03;1.20;;;;;;;7.68;74.09;99422.53;4980554;28;20315;-61
2022/11/21 09:55:41;;;;;;;3.23;1.53;;;;;;;7.77;73.05;99419.97;4980862;28;20283;-62
2022/11/21 09:58:20;;;;;;;5.20;1.47;;;;;;;7.90;72.98;99422.72;4982041;28;20266;-63
2022/11/21 10:00:49;;;;;;;2.80;1.30;;;;;;;8.00;72.98;99420.16;4981588;28;20259;-65
2022/11/21 10:03:16;;;;;;;2.50;1.23;;;;;;;8.15;71.29;99411.50;4970151;28;20223;-64
2022/11/21 10:06:02;;;;;;;1.67;1.10;;;;;;;8.26;70.32;99401.91;4985838;28;20338;-64
2022/11/21 10:08:57;;;;;;;1.97;1.20;;;;;;;8.12;70.15;99393.00;4971240;28;20463;-64
2022/11/21 10:15:17;;;;;;;2.90;1.40;;;;;;;8.18;70.29;99396.56;4984737;28;20197;-65
2022/11/21 10:17:43;;;;;;;3.53;1.40;;;;;;;8.08;70.86;99384.19;4964793;28;20229;-62
2022/11/21 10:20:48;;;;;;;4.57;1.33;;;;;;;8.01;70.93;99394.69;4984499;28;20275;-63
2022/11/21 10:23:35;;;;;;;3.60;1.50;;;;;;;7.84;71.81;99397.19;4985156;28;20304;-63
2022/11/21 10:26:29;;;;;;;2.97;1.40;;;;;;;7.75;72.16;99405.03;5005011;28;20220;-64
2022/11/21 10:29:17;;;;;;;3.20;1.43;;;;;;;7.78;72.23;99387.47;5005033;28;20204;-64
2022/11/21 10:31:43;;;;;;;4.30;1.37;;;;;;;8.05;72.24;99384.19;4999630;28;20208;-61
2022/11/21 10:34:14;;;;;;;2.93;1.43;;;;;;;8.31;71.45;99375.53;5002888;28;20224;-64
2022/11/21 10:36:45;;;;;;;3.17;1.33;;;;;;;8.50;70.03;99369.53;5004135;28;20328;-64
2022/11/21 10:39:33;;;;;;;2.87;1.70;;;;;;;8.66;69.18;99367.84;5006018;28;20228;-62
2022/11/21 10:42:03;;;;;;;6.30;1.40;;;;;;;8.90;70.11;99367.97;4989883;28;20297;-62
2022/11/21 10:47:26;;;;;;;3.47;1.20;;;;;;;9.52;65.95;99361.06;5006545;28;20203;-63
2022/11/21 10:50:14;;;;;;;3.50;1.10;;;;;;;9.50;65.32;99362.81;5007129;28;20234;-60
2022/11/21 10:52:48;;;;;;;3.67;1.20;;;;;;;9.73;64.81;99343.44;5006869;28;20570;-64
2022/11/21 10:55:16;;;;;;;2.60;1.20;;;;;;;9.96;63.66;99351.34;5008242;28;20248;-64
2022/11/21 10:57:48;;;;;;;3.43;1.30;;;;;;;10.02;63.26;99338.16;5005307;28;20291;-64
2022/11/21 11:00:26;;;;;;;6.03;1.20;;;;;;;10.17;62.42;99339.88;5009577;28;20664;-64
2022/11/21 11:02:56;;;;;;;2.97;1.10;;;;;;;10.04;61.82;99343.44;5007042;28;20255;-62
2022/11/21 11:05:26;;;;;;;2.70;1.20;;;;;;;10.03;62.59;99342.56;5007529;28;20281;-64
2022/11/21 11:08:12;;;;;;;1.93;1.10;;;;;;;10.10;61.93;99343.41;5008119;28;20238;-64
2022/11/21 11:10:41;;;;;;;2.83;1.07;;;;;;;10.25;62.33;99337.25;5009894;28;20220;-64
2022/11/21 11:16:14;;;;;;;2.40;1.03;;;;;;;10.77;60.92;99332.66;5005551;28;20196;-66
2022/11/21 11:18:55;;;;;;;3.10;1.10;;;;;;;10.65;60.19;99323.00;5008372;28;20201;-64
2022/11/21 11:21:23;;;;;;;3.30;0.90;;;;;;;10.84;60.76;99326.47;5007503;28;20201;-61
2022/11/21 11:23:52;;;;;;;2.80;1.20;;;;;;;10.86;58.73;99318.50;5006552;28;20665;-63
2022/11/21 11:26:26;;;;;;;2.30;1.10;;;;;;;10.90;58.20;99302.59;5006568;28;20201;-64
2022/11/21 11:29:07;;;;;;;4.27;1.40;;;;;;;10.90;57.61;99312.31;5006616;28;20205;-64
2022/11/21 11:31:53;;;;;;;2.03;1.20;;;;;;;10.64;58.04;99307.13;5005177;28;20760;-67
2022/11/21 11:34:20;;;;;;;3.23;1.20;;;;;;;10.57;58.43;99306.28;5008966;28;20676;-65
2022/11/21 11:37:14;;;;;;;4.47;1.20;;;;;;;10.56;59.39;99306.28;5001857;28;20296;-64
2022/11/21 11:40:06;;;;;;;1.80;1.03;;;;;;;10.50;58.91;99306.31;5007685;28;20915;-65
2022/11/21 11:49:02;;;;;;;2.43;1.17;;;;;;;10.13;59.48;99282.56;5008757;28;20956;-64
2022/11/21 11:51:59;;;;;;;1.93;1.17;;;;;;;10.21;60.08;99278.16;5002498;28;20221;-63
2022/11/21 11:54:33;;;;;;;4.90;1.37;;;;;;;10.43;58.96;99262.22;4986552;28;20204;-62
2022/11/21 11:57:00;;;;;;;2.47;1.13;;;;;;;10.40;57.64;99267.50;4986919;28;20274;-64
2022/11/21 11:59:43;;;;;;;2.87;1.07;;;;;;;10.40;56.66;99256.91;5031676;23;20224;-67
2022/11/21 12:02:24;;;;;;;4.00;1.10;;;;;;;10.76;57.18;99243.50;5003452;28;20657;-65
2022/11/21 12:04:58;;;;;;;3.07;1.10;;;;;;;11.11;55.26;99243.28;5007746;28;20197;-66
2022/11/21 12:07:34;;;;;;;3.03;0.90;;;;;;;11.22;54.59;99246.75;5009941;28;20248;-67
2022/11/21 12:10:33;;;;;;;2.27;1.00;;;;;;;11.37;54.30;99232.47;5005956;28;20597;-63
2022/11/21 12:13:10;;;;;;;3.37;1.00;;;;;;;11.56;53.73;99211.97;5005174;28;20745;-69
2022/11/21 12:15:47;;;;;;;2.83;1.40;;;;;;;11.72;52.73;99224.22;5009573;28;20230;-69
2022/11/21 12:18:14;;;;;;;2.50;1.30;;;;;;;11.73;53.16;99223.31;5003864;28;20231;-76
2022/11/21 12:21:28;;;;;;;2.33;0.90;;;;;;;11.50;53.17;99204.94;5005106;28;20242;-73
2022/11/21 12:23:57;;;;;;;2.63;0.97;;;;;;;11.57;52.25;99211.06;5001292;28;20224;-71